hero-logo

Top 15 Knowers of INTU Intuit Inc - 2017-07-25

Rank Fund Result (K)
1 Squarepoint Ops Llc $424
2 Jacobs Levy Equity Management Inc $317
3 Atlanta Capital Management Co L L C $298
4 Glg Partners Lp $249
5 Highbridge Capital Management Llc $158
6 Capstone Investment Advisors Llc $130
7 Paloma Partners Management Co $90
8 Gsa Capital Partners Llp $85
9 Bridgeway Capital Management Inc $76
10 Ahl Partners Llp $70
11 Seven Eight Capital Lp $61
12 A R T Advisors Llc $52
13 Fiera Capital Corp $48
14 Jane Street Group Llc $33
15 Stifel Financial Corp $32
Price Chart and News From Google Finance for INTU Intuit Inc
Owner Date Shares Change Price Change Result (K)
Acrospire Investment Management Llc 2017-03-31 200 $1.38 $0
Advantage Investment Management Llc 2017-03-31 -44 $1.38 $0
Ahl Partners Llp 2017-03-31 50,780 $1.38 $70
Amalgamated Bank 2017-03-31 -7,937 $1.38 $-10
Amf Pensionsforsakring Ab 2017-03-31 -4,753 $1.38 $-6
Ancora Advisors Llc 2017-03-31 -25 $1.38 $0
Aperio Group Llc 2017-03-31 10,845 $1.38 $14
Archford Capital Strategies Llc 2017-03-31 0 $1.38 $0
Ardsley Advisory Partners 2017-03-31 -2,000 $1.38 $-2
Arrow Financial Corp 2017-03-31 0 $1.38 $0
A R T Advisors Llc 2017-03-31 37,700 $1.38 $52
Assetmark Inc 2017-03-31 -26 $1.38 $0
Atlanta Capital Management Co L L C 2017-03-31 216,444 $1.38 $298
Balentine Llc 2017-03-31 43 $1.38 $0
Barr E S Co 2017-03-31 29 $1.38 $0
Barrington Strategic Wealth Management Group Llc 2017-03-31 -2 $1.38 $0
Beacon Trust Co 2017-03-31 1,403 $1.38 $1
Blair William Co Il 2017-03-31 -2,170 $1.38 $-2
Bokf Na 2017-03-31 2,390 $1.38 $3
Boston Private Wealth Llc 2017-03-31 -1,034 $1.38 $-1
Bridgeway Capital Management Inc 2017-03-31 55,200 $1.38 $76
Brinker Capital Inc 2017-03-31 387 $1.38 $0
Brown Brothers Harriman Co 2017-03-31 -1,828 $1.38 $-2
California State Teachers Retirement System 2017-03-31 -22,300 $1.38 $-30
Capital Guardian Trust Co 2017-03-31 0 $1.38 $0
Capstone Investment Advisors Llc 2017-03-31 94,597 $1.38 $130
Carlson Capital L P 2017-03-31 -62,665 $1.38 $-86
Caxton Associates Lp 2017-03-31 -3,600 $1.38 $-4
Cetera Advisor Networks Llc 2017-03-31 0 $1.38 $0
Colony Group Llc 2017-03-31 -391 $1.38 $0
Compagnie Lombard Odier Scma 2017-03-31 630 $1.38 $0
Conatus Capital Management Lp 2017-03-31 -222,401 $1.38 $-306
Cornerstone Capital Management Holdings Llc 2017-03-31 -653 $1.38 $0
Covington Capital Management 2017-03-31 -1,276 $1.38 $-1
D A Davidson Co 2017-03-31 -36,869 $1.38 $-50
Davidson Investment Advisors 2017-03-31 208 $1.38 $0
Denver Investment Advisors Llc 2017-03-31 0 $1.38 $0
Df Dent Co Inc 2017-03-31 -17,054 $1.38 $-23
Earnest Partners Llc 2017-03-31 5,030 $1.38 $6
Echo Street Capital Management Llc 2017-03-31 8,633 $1.38 $11
Edgestream Partners L P 2017-03-31 10,158 $1.38 $14
Elkhorn Investments Llc 2017-03-31 9,051 $1.38 $12
Envestnet Asset Management Inc 2017-03-31 -1,332 $1.38 $-1
Eulav Asset Management 2017-03-31 0 $1.38 $0
Fairfield Bush Co 2017-03-31 0 $1.38 $0
Fdo Partners Llc 2017-03-31 -10,629 $1.38 $-14
Fiera Capital Corp 2017-03-31 35,208 $1.38 $48
First Republic Investment Management Inc 2017-03-31 -130 $1.38 $0
Focused Wealth Management Inc 2017-03-31 0 $1.38 $0
Forbes J M Co Llp 2017-03-31 0 $1.38 $0
Generation Investment Management Llp 2017-03-31 -1,124,130 $1.38 $-1,551
Glassman Wealth Services 2017-03-31 3 $1.38 $0
Glen Harbor Capital Management Llc 2017-03-31 1,536 $1.38 $2
Glg Llc 2017-03-31 -29 $1.38 $0
Glg Partners Lp 2017-03-31 180,557 $1.38 $249
Godshalk Welsh Capital Management Inc 2017-03-31 0 $1.38 $0
Green Square Capital Llc 2017-03-31 0 $1.38 $0
Gsa Capital Partners Llp 2017-03-31 62,198 $1.38 $85
Guggenheim Capital Llc 2017-03-31 19,565 $1.38 $27
Hanson Doremus Investment Management 2017-03-31 82 $1.38 $0
Highbridge Capital Management Llc 2017-03-31 115,197 $1.38 $158
Holland Capital Management Llc 2017-03-31 -24,516 $1.38 $-33
Horizon Kinetics Llc 2017-03-31 -242 $1.38 $0
Hutchin Hill Capital Lp 2017-03-31 15,300 $1.38 $21
Ifp Advisors Inc 2017-03-31 470 $1.38 $0
Iht Wealth Management Llc 2017-03-31 0 $1.38 $0
Invictus Rg 2017-03-31 -1,717 $1.38 $-2
Ipg Investment Advisors Llc 2017-03-31 2,775 $1.38 $3
Itau Unibanco Holding S A 2017-03-31 210 $1.38 $0
Jacobs Levy Equity Management Inc 2017-03-31 229,923 $1.38 $317
Jane Street Group Llc 2017-03-31 24,559 $1.38 $33
Johnson Investment Counsel Inc 2017-03-31 0 $1.38 $0
Junto Capital Management Lp 2017-03-31 -324,901 $1.38 $-448
Kentucky Retirement Systems 2017-03-31 -2,115 $1.38 $-2
Kentucky Retirement Systems Insurance Trust Fund 2017-03-31 -1,324 $1.38 $-1
Ladenburg Thalmann Financial Services Inc 2017-03-31 -910 $1.38 $-1
Laffer Investments 2017-03-31 0 $1.38 $0
Level Four Advisory Services Llc 2017-03-31 -804 $1.38 $-1
Logan Capital Management Inc 2017-03-31 0 $1.38 $0
Long Road Investment Counsel Llc 2017-03-31 0 $1.38 $0
L S Advisors Inc 2017-03-31 0 $1.38 $0
Mariner Wealth Advisors Llc 2017-03-31 -1,730 $1.38 $-2
Mason Street Advisors Llc 2017-03-31 224 $1.38 $0
Mogy Joel R Investment Counsel Inc 2017-03-31 11,810 $1.38 $16
Mv Capital Management Inc 2017-03-31 -70 $1.38 $0
Neuburgh Advisers Llc 2017-03-31 3,264 $1.38 $4
Next Century Growth Investors Llc 2017-03-31 -727 $1.38 $-1
Northwestern Mutual Investment Management Company Llc 2017-03-31 21,119 $1.38 $29
Northwestern Mutual Wealth Management Co 2017-03-31 -534 $1.38 $0
One Capital Management Llc 2017-03-31 0 $1.38 $0
Paloma Partners Management Co 2017-03-31 65,432 $1.38 $90
Perigon Wealth Management Llc 2017-03-31 0 $1.38 $0
Piedmont Investment Advisors Llc 2017-03-31 445 $1.38 $0
Pinkerton Retirement Specialists Llc 2017-03-31 -78 $1.38 $0
Pittenger Anderson Inc 2017-03-31 -30 $1.38 $0
Proficio Capital Partners Llc 2017-03-31 32 $1.38 $0
Public Employees Retirement System Of Ohio 2017-03-31 0 $1.38 $0
Quest Investment Management Inc Or 2017-03-31 -20,124 $1.38 $-27
Raymond James Associates 2017-03-31 -16,982 $1.38 $-23
Rb Capital Management Llc 2017-03-31 0 $1.38 $0
Richard Bernstein Advisors Llc 2017-03-31 0 $1.38 $0
Riverhead Capital Management Llc 2017-03-31 1,883 $1.38 $2
Rothschild Asset Management Inc 2017-03-31 -653 $1.38 $0
Saturna Capital Corp 2017-03-31 -700 $1.38 $0
Schonfeld Strategic Advisors Llc 2017-03-31 19,106 $1.38 $26
Sciencast Management Lp 2017-03-31 12,514 $1.38 $17
Secor Capital Advisors Lp 2017-03-31 3,018 $1.38 $4
Sequoia Financial Advisors Llc 2017-03-31 -1,000 $1.38 $-1
Seven Eight Capital Lp 2017-03-31 44,500 $1.38 $61
Somerville Kurt F 2017-03-31 0 $1.38 $0
Sowell Financial Services Llc 2017-03-31 3,724 $1.38 $5
Squarepoint Ops Llc 2017-03-31 307,492 $1.38 $424
Srs Capital Advisors Inc 2017-03-31 401 $1.38 $0
Sterling Capital Management Llc 2017-03-31 -81,007 $1.38 $-111
Stifel Financial Corp 2017-03-31 23,838 $1.38 $32
Strategic Wealth Advisors Group Llc 2017-03-31 3,668 $1.38 $5
Taurus Asset Management Llc 2017-03-31 -1,250 $1.38 $-1
Two Sigma Securities Llc 2017-03-31 6,501 $1.38 $8
Tyers Asset Management Llc 2017-03-31 2,112 $1.38 $2
United Capital Financial Advisers Llc 2017-03-31 -590 $1.38 $0
Veritable L P 2017-03-31 -4 $1.38 $0
Verition Fund Management Llc 2017-03-31 10,055 $1.38 $13
Voloridge Investment Management Llc 2017-03-31 432 $1.38 $0
Walleye Trading Llc 2017-03-31 14,746 $1.38 $20
Wbi Investments Inc 2017-03-31 -22,879 $1.38 $-31
Wealthsource Partners Llc 2017-03-31 0 $1.38 $0
Webster Bank N A 2017-03-31 0 $1.38 $0
Yorkbridge Wealth Partners Llc 2017-03-31 300 $1.38 $0